createdAt,value
2019-06-08T00:04:44.987Z,98764.69
2019-06-08T00:09:52.258Z,98783.42
2019-06-08T00:14:59.657Z,98784.84
2019-06-08T00:20:07.366Z,98802.67
2019-06-08T00:25:16.116Z,98827.81
2019-06-08T00:30:23.709Z,98853.09
2019-06-08T00:35:31.047Z,98899.53
2019-06-08T00:40:38.549Z,98913.91
2019-06-08T00:45:45.975Z,98934.08
2019-06-08T00:50:54.400Z,98947.14
2019-06-08T00:56:01.888Z,98930.83
2019-06-08T01:01:09.690Z,98938.55
2019-06-08T01:06:17.081Z,98937.63
2019-06-08T01:11:24.745Z,98959.81
2019-06-08T01:16:32.321Z,98967.20
2019-06-08T01:21:39.654Z,98954.72
2019-06-08T01:26:47.010Z,98983.25
2019-06-08T01:31:54.517Z,98998.66
2019-06-08T01:37:01.996Z,99020.09
2019-06-08T01:42:09.346Z,99020.09
2019-06-08T01:47:16.637Z,99034.75
2019-06-08T01:52:24.636Z,99046.22
2019-06-08T01:57:33.699Z,99067.45
2019-06-08T02:02:41.359Z,99078.70
2019-06-08T02:07:48.812Z,99073.98
2019-06-08T02:12:56.112Z,99065.03
2019-06-08T02:18:03.540Z,99056.91
2019-06-08T02:23:10.968Z,99074.96
2019-06-08T02:28:18.382Z,99069.13
2019-06-08T02:33:25.813Z,99078.70
2019-06-08T02:38:34.592Z,99092.00
2019-06-08T02:43:42.140Z,99102.82
2019-06-08T02:49:03.543Z,99099.46
2019-06-08T02:53:59.628Z,99089.80
2019-06-08T02:59:07.342Z,99086.52
2019-06-08T03:04:17.438Z,99089.52
2019-06-08T03:09:27.637Z,99088.06
2019-06-08T03:14:35.603Z,99102.98
2019-06-08T03:19:44.632Z,99104.61
2019-06-08T03:24:53.184Z,99107.48
2019-06-08T03:30:15.092Z,99108.59
2019-06-08T03:35:10.793Z,99117.27
2019-06-08T03:40:18.480Z,99118.77
2019-06-08T03:45:25.781Z,99123.30
2019-06-08T03:50:35.302Z,99118.58
2019-06-08T03:55:44.953Z,99105.27
2019-06-08T04:00:51.712Z,99127.46
2019-06-08T04:05:59.185Z,99131.47
2019-06-08T04:11:06.646Z,99137.38
2019-06-08T04:16:13.985Z,99153.70
2019-06-08T04:21:21.349Z,99167.48
2019-06-08T04:26:28.768Z,99195.48
2019-06-08T04:31:37.735Z,99208.30
2019-06-08T04:36:46.350Z,99207.72
2019-06-08T04:41:55.343Z,99211.36
2019-06-08T04:47:02.774Z,99205.15
2019-06-08T04:52:10.075Z,99216.11
2019-06-08T04:57:17.366Z,99240.52
2019-06-08T05:02:24.818Z,99250.97
2019-06-08T05:07:32.261Z,99256.56
2019-06-08T05:12:41.165Z,99257.08
2019-06-08T05:17:49.665Z,99253.23
2019-06-08T05:22:57.722Z,99263.00
2019-06-08T05:28:05.580Z,99283.35
2019-06-08T05:33:12.826Z,99295.52
2019-06-08T05:38:20.200Z,99309.41
2019-06-08T05:43:27.585Z,99319.17
2019-06-08T05:48:34.870Z,99332.00
2019-06-08T05:53:42.255Z,99338.91
2019-06-08T05:58:50.313Z,99348.38
2019-06-08T06:03:58.201Z,99354.73
2019-06-08T06:09:07.582Z,99346.40
2019-06-08T06:14:15.280Z,99338.09
2019-06-08T06:19:23.002Z,99337.55
2019-06-08T06:24:30.426Z,99329.62
2019-06-08T06:29:37.881Z,99336.16
2019-06-08T06:34:45.839Z,99342.08
2019-06-08T06:39:53.454Z,99339.03
2019-06-08T06:45:01.016Z,99337.19
2019-06-08T06:50:09.379Z,99356.02
2019-06-08T06:55:17.320Z,99354.55
2019-06-08T07:00:33.800Z,99369.12
2019-06-08T07:05:41.274Z,99372.50
2019-06-08T07:10:48.649Z,99385.36
2019-06-08T07:15:58.164Z,99402.94
2019-06-08T07:21:10.202Z,99423.09
2019-06-08T07:26:17.526Z,99428.86
2019-06-08T07:31:25.757Z,99436.13
2019-06-08T07:36:33.247Z,99443.84
2019-06-08T07:41:40.673Z,99423.88
2019-06-08T07:46:49.364Z,99440.19
2019-06-08T07:52:06.673Z,99420.40
2019-06-08T07:57:05.996Z,99414.29
2019-06-08T08:02:13.407Z,99441.55
2019-06-08T08:07:20.879Z,99454.06
2019-06-08T08:12:28.178Z,99470.48
2019-06-08T08:17:35.661Z,99461.54
2019-06-08T08:22:43.026Z,99472.35
2019-06-08T08:27:51.893Z,99468.22
2019-06-08T08:33:02.706Z,99465.23
2019-06-08T08:38:08.485Z,99475.33
2019-06-08T08:43:17.847Z,99493.27
2019-06-08T08:48:28.386Z,99504.46
2019-06-08T08:53:34.045Z,99511.20
2019-06-08T08:58:41.480Z,99518.23
2019-06-08T09:03:51.833Z,99509.70
2019-06-08T09:09:00.785Z,99519.92
2019-06-08T09:14:10.893Z,99523.34
2019-06-08T09:19:18.375Z,99533.06
2019-06-08T09:24:25.146Z,99532.14
2019-06-08T09:29:32.507Z,99536.27
2019-06-08T09:34:39.926Z,99542.45
2019-06-08T09:39:48.295Z,99547.94
2019-06-08T09:45:00.086Z,99557.75
2019-06-08T09:50:05.736Z,99549.55
2019-06-08T09:55:14.244Z,99544.74
2019-06-08T10:00:25.649Z,99549.38
2019-06-08T10:05:30.976Z,99555.09
2019-06-08T10:10:38.409Z,99535.25
2019-06-08T10:15:51.206Z,99536.63
2019-06-08T10:20:58.138Z,99529.52
2019-06-08T10:26:06.309Z,99543.94
2019-06-08T10:31:14.266Z,99551.74
2019-06-08T10:36:21.715Z,99544.76
2019-06-08T10:41:29.145Z,99543.20
2019-06-08T10:46:40.234Z,99545.76
2019-06-08T10:51:48.477Z,99527.62
2019-06-08T10:56:54.710Z,99516.38
2019-06-08T11:02:05.387Z,99522.95
2019-06-08T11:07:16.114Z,99527.20
2019-06-08T11:12:22.668Z,99507.09
2019-06-08T11:17:30.008Z,99533.70
2019-06-08T11:22:37.590Z,99532.34
2019-06-08T11:27:47.400Z,99539.36
2019-06-08T11:32:54.382Z,99542.77
2019-06-08T11:38:02.253Z,99538.94
2019-06-08T11:43:10.690Z,99535.97
2019-06-08T11:48:18.569Z,99546.08
2019-06-08T11:53:28.675Z,99523.04
2019-06-08T11:58:38.539Z,99526.47
2019-06-08T12:03:48.233Z,99536.27
2019-06-08T12:08:57.426Z,99540.33
2019-06-08T12:14:04.860Z,99550.75
2019-06-08T12:19:15.772Z,99548.47
2019-06-08T12:24:21.491Z,99551.59
2019-06-08T12:29:30.247Z,99545.98
2019-06-08T12:34:38.367Z,99546.72
2019-06-08T12:39:46.040Z,99546.05
2019-06-08T12:44:53.481Z,99543.28
2019-06-08T12:50:00.908Z,99540.53
2019-06-08T12:55:15.906Z,99531.94
2019-06-08T13:00:20.117Z,99528.48
2019-06-08T13:05:28.309Z,99525.42
2019-06-08T13:10:37.659Z,99525.20
2019-06-08T13:15:44.737Z,99524.25
2019-06-08T13:20:52.185Z,99524.80
2019-06-08T13:25:59.610Z,99523.96
2019-06-08T13:31:07.861Z,99516.55
2019-06-08T13:36:18.711Z,99521.17
2019-06-08T13:41:29.028Z,99535.00
2019-06-08T13:46:33.908Z,99537.80
2019-06-08T13:51:41.395Z,99541.06
2019-06-08T13:56:50.618Z,99529.05
2019-06-08T14:01:58.023Z,99547.79
2019-06-08T14:07:07.610Z,99540.48
2019-06-08T14:12:14.766Z,99553.56
2019-06-08T14:17:24.155Z,99546.31
2019-06-08T14:22:31.199Z,99556.53
2019-06-08T14:27:38.664Z,99556.80
2019-06-08T14:32:47.903Z,99560.30
2019-06-08T14:37:55.150Z,99558.02
2019-06-08T14:43:02.567Z,99554.18
2019-06-08T14:48:10.051Z,99553.42
2019-06-08T14:53:18.881Z,99549.86
2019-06-08T14:58:32.775Z,99561.69
2019-06-08T15:03:37.872Z,99558.64
2019-06-08T15:08:50.092Z,99566.75
2019-06-08T15:13:55.312Z,99547.96
2019-06-08T15:19:02.841Z,99558.25
2019-06-08T15:24:10.470Z,99548.23
2019-06-08T15:29:17.948Z,99546.59
2019-06-08T15:34:28.307Z,99536.83
2019-06-08T15:39:34.539Z,99543.17
2019-06-08T15:44:41.897Z,99551.22
2019-06-08T15:49:50.429Z,99545.39
2019-06-08T15:55:01.323Z,99538.61
2019-06-08T16:00:10.191Z,99533.91
2019-06-08T16:05:17.823Z,99533.59
2019-06-08T16:10:26.331Z,99541.32
2019-06-08T16:15:35.238Z,99534.61
2019-06-08T16:20:42.644Z,99541.00
2019-06-08T16:25:50.179Z,99535.56
2019-06-08T16:30:57.608Z,99531.72
2019-06-08T16:36:05.053Z,99536.49
2019-06-08T16:41:12.542Z,99530.48
2019-06-08T16:46:20.001Z,99530.07
2019-06-08T16:51:27.374Z,99524.30
2019-06-08T16:56:36.322Z,99534.65
2019-06-08T17:01:44.117Z,99542.73
2019-06-08T17:06:51.592Z,99542.95
2019-06-08T17:11:58.896Z,99545.15
2019-06-08T17:17:06.371Z,99549.75
2019-06-08T17:22:13.798Z,99551.67
2019-06-08T17:27:26.831Z,99547.02
2019-06-08T17:32:31.340Z,99548.64
2019-06-08T17:37:40.106Z,99543.88
2019-06-08T17:42:47.820Z,99544.03
2019-06-08T17:47:55.313Z,99554.31
2019-06-08T17:53:02.687Z,99560.14
2019-06-08T17:58:10.192Z,99570.84
2019-06-08T18:03:17.726Z,99574.42
2019-06-08T18:08:25.977Z,99576.94
2019-06-08T18:13:34.237Z,99586.47
2019-06-08T18:18:42.473Z,99588.06
2019-06-08T18:23:50.834Z,99581.55
2019-06-08T18:28:58.286Z,99591.41
2019-06-08T18:34:08.268Z,99598.66
2019-06-08T18:39:14.778Z,99600.17
2019-06-08T18:44:39.390Z,99611.09
2019-06-08T18:49:48.399Z,99621.08
2019-06-08T18:54:57.683Z,99625.16
2019-06-08T19:00:10.992Z,99635.84
2019-06-08T19:05:14.168Z,99635.24
2019-06-08T19:10:33.366Z,99647.00
2019-06-08T19:15:44.259Z,99655.47
2019-06-08T19:20:53.484Z,99667.63
2019-06-08T19:26:00.588Z,99676.81
2019-06-08T19:31:10.281Z,99683.59
2019-06-08T19:36:18.190Z,99689.88
2019-06-08T19:41:28.101Z,99698.08
2019-06-08T19:46:34.995Z,99708.02
2019-06-08T19:51:42.909Z,99709.55
2019-06-08T19:56:54.274Z,99721.77
2019-06-08T20:02:00.009Z,99723.83
2019-06-08T20:07:08.720Z,99738.01
2019-06-08T20:12:18.497Z,99750.77
2019-06-08T20:17:28.187Z,99752.20
2019-06-08T20:22:37.791Z,99763.66
2019-06-08T20:27:45.304Z,99760.88
2019-06-08T20:32:54.481Z,99762.72
2019-06-08T20:38:02.065Z,99770.77
2019-06-08T20:43:09.606Z,99783.14
2019-06-08T20:48:18.258Z,99779.55
2019-06-08T20:53:28.143Z,99783.30
2019-06-08T20:58:37.029Z,99791.28
2019-06-08T21:03:44.019Z,99799.30
2019-06-08T21:08:53.100Z,99795.81
2019-06-08T21:14:00.499Z,99798.14
2019-06-08T21:19:07.936Z,99796.83
2019-06-08T21:24:17.338Z,99804.72
2019-06-08T21:29:26.766Z,99806.61
2019-06-08T21:34:33.422Z,99805.77
2019-06-08T21:39:40.908Z,99806.58
2019-06-08T21:44:50.500Z,99803.19
2019-06-08T21:50:00.364Z,99803.52
2019-06-08T21:55:07.434Z,99811.00
2019-06-08T22:00:38.136Z,99826.15
2019-06-08T22:05:26.132Z,99827.35
2019-06-08T22:10:33.618Z,99841.44
2019-06-08T22:15:41.083Z,99846.96
2019-06-08T22:20:48.784Z,99862.05
2019-06-08T22:25:59.234Z,99861.72
2019-06-08T22:31:07.754Z,99867.44
2019-06-08T22:36:14.840Z,99869.80
2019-06-08T22:41:22.338Z,99868.30
2019-06-08T22:46:29.605Z,99876.27
2019-06-08T22:51:38.357Z,99870.91
2019-06-08T22:56:47.795Z,99873.17
2019-06-08T23:01:56.543Z,99886.56
2019-06-08T23:07:06.129Z,99895.69
2019-06-08T23:12:13.022Z,99891.11
2019-06-08T23:17:20.443Z,99889.61
2019-06-08T23:22:27.843Z,99889.00
2019-06-08T23:27:37.788Z,99885.66
2019-06-08T23:32:44.118Z,99890.36
2019-06-08T23:37:51.547Z,99891.11
2019-06-08T23:43:01.204Z,99890.64
2019-06-08T23:48:08.744Z,99888.64
2019-06-08T23:53:18.236Z,99889.98
2019-06-08T23:58:27.718Z,99893.66
